sensor_id;sensor_type;location;lat;lon;timestamp;pressure;altitude;pressure_sealevel;temperature;humidity
15817;BME280;8009;50.070;8.232;2022-10-18T00:01:08;100844.91;;;16.83;92.54
15817;BME280;8009;50.070;8.232;2022-10-18T00:03:37;100838.28;;;16.75;92.44
15817;BME280;8009;50.070;8.232;2022-10-18T00:06:06;100845.09;;;16.70;93.46
15817;BME280;8009;50.070;8.232;2022-10-18T00:08:38;100842.91;;;16.85;92.73
15817;BME280;8009;50.070;8.232;2022-10-18T00:11:07;100847.09;;;16.89;92.40
15817;BME280;8009;50.070;8.232;2022-10-18T00:13:35;100850.09;;;16.86;92.68
15817;BME280;8009;50.070;8.232;2022-10-18T00:16:09;100849.91;;;16.77;93.77
15817;BME280;8009;50.070;8.232;2022-10-18T00:18:38;100852.81;;;16.86;92.84
15817;BME280;8009;50.070;8.232;2022-10-18T00:21:10;100867.31;;;16.86;93.15
15817;BME280;8009;50.070;8.232;2022-10-18T00:23:42;100850.34;;;16.83;93.64
15817;BME280;8009;50.070;8.232;2022-10-18T00:26:12;100848.69;;;16.70;95.19
15817;BME280;8009;50.070;8.232;2022-10-18T00:28:41;100843.84;;;16.74;94.94
15817;BME280;8009;50.070;8.232;2022-10-18T00:31:12;100840.91;;;16.66;95.59
15817;BME280;8009;50.070;8.232;2022-10-18T00:33:41;100845.50;;;16.65;96.35
15817;BME280;8009;50.070;8.232;2022-10-18T00:36:11;100840.50;;;16.70;95.74
15817;BME280;8009;50.070;8.232;2022-10-18T00:38:43;100841.13;;;16.74;95.89
15817;BME280;8009;50.070;8.232;2022-10-18T00:41:13;100830.88;;;16.66;96.57
15817;BME280;8009;50.070;8.232;2022-10-18T00:43:52;100833.84;;;16.63;96.22
15817;BME280;8009;50.070;8.232;2022-10-18T00:46:21;100837.00;;;16.58;97.21
15817;BME280;8009;50.070;8.232;2022-10-18T00:48:50;100840.50;;;16.70;96.21
15817;BME280;8009;50.070;8.232;2022-10-18T00:51:20;100839.78;;;16.68;95.75
15817;BME280;8009;50.070;8.232;2022-10-18T00:53:52;100844.50;;;16.66;96.56
15817;BME280;8009;50.070;8.232;2022-10-18T00:56:20;100842.25;;;16.50;97.52
15817;BME280;8009;50.070;8.232;2022-10-18T00:58:51;100834.28;;;16.38;98.29
15817;BME280;8009;50.070;8.232;2022-10-18T01:01:20;100834.94;;;16.51;98.22
15817;BME280;8009;50.070;8.232;2022-10-18T01:03:49;100842.31;;;16.60;97.28
15817;BME280;8009;50.070;8.232;2022-10-18T01:06:19;100845.34;;;16.67;96.81
15817;BME280;8009;50.070;8.232;2022-10-18T01:09:01;100841.25;;;16.72;96.73
15817;BME280;8009;50.070;8.232;2022-10-18T01:14:36;100851.81;;;16.66;96.89
15817;BME280;8009;50.070;8.232;2022-10-18T01:17:13;100848.91;;;16.57;97.85
15817;BME280;8009;50.070;8.232;2022-10-18T01:22:43;100835.69;;;16.53;98.96
15817;BME280;8009;50.070;8.232;2022-10-18T01:25:24;100838.16;;;16.56;99.05
15817;BME280;8009;50.070;8.232;2022-10-18T01:28:06;100834.66;;;16.54;99.15
15817;BME280;8009;50.070;8.232;2022-10-18T01:30:46;100838.31;;;16.43;100.00
15817;BME280;8009;50.070;8.232;2022-10-18T01:33:25;100832.97;;;16.53;98.97
15817;BME280;8009;50.070;8.232;2022-10-18T01:35:59;100833.38;;;16.48;99.78
15817;BME280;8009;50.070;8.232;2022-10-18T01:38:31;100825.31;;;16.47;100.00
15817;BME280;8009;50.070;8.232;2022-10-18T01:41:01;100820.59;;;16.49;99.69
15817;BME280;8009;50.070;8.232;2022-10-18T01:43:31;100813.00;;;16.52;100.00
15817;BME280;8009;50.070;8.232;2022-10-18T01:46:04;100805.34;;;16.46;100.00
15817;BME280;8009;50.070;8.232;2022-10-18T01:48:33;100797.03;;;16.48;100.00
15817;BME280;8009;50.070;8.232;2022-10-18T01:51:03;100796.50;;;16.54;100.00
15817;BME280;8009;50.070;8.232;2022-10-18T01:53:32;100791.31;;;16.51;100.00
15817;BME280;8009;50.070;8.232;2022-10-18T01:56:13;100785.06;;;16.60;99.51
15817;BME280;8009;50.070;8.232;2022-10-18T01:58:49;100791.25;;;16.62;99.20
15817;BME280;8009;50.070;8.232;2022-10-18T02:01:30;100793.84;;;16.64;98.99
15817;BME280;8009;50.070;8.232;2022-10-18T02:04:06;100791.97;;;16.64;98.99
15817;BME280;8009;50.070;8.232;2022-10-18T02:06:43;100788.50;;;16.62;99.21
15817;BME280;8009;50.070;8.232;2022-10-18T02:09:17;100795.97;;;16.60;99.15
15817;BME280;8009;50.070;8.232;2022-10-18T02:11:47;100792.56;;;16.68;98.77
15817;BME280;8009;50.070;8.232;2022-10-18T02:14:18;100796.63;;;16.73;98.33
15817;BME280;8009;50.070;8.232;2022-10-18T02:16:52;100790.72;;;16.68;98.54
15817;BME280;8009;50.070;8.232;2022-10-18T02:19:24;100788.25;;;16.65;98.99
15817;BME280;8009;50.070;8.232;2022-10-18T02:21:56;100791.13;;;16.64;99.27
15817;BME280;8009;50.070;8.232;2022-10-18T02:24:32;100784.19;;;16.60;99.73
15817;BME280;8009;50.070;8.232;2022-10-18T02:27:01;100791.72;;;16.46;100.00
15817;BME280;8009;50.070;8.232;2022-10-18T02:29:30;100792.84;;;16.44;100.00
15817;BME280;8009;50.070;8.232;2022-10-18T02:32:03;100796.06;;;16.49;100.00
15817;BME280;8009;50.070;8.232;2022-10-18T02:34:37;100796.19;;;16.47;100.00
15817;BME280;8009;50.070;8.232;2022-10-18T02:37:08;100812.13;;;16.52;100.00
15817;BME280;8009;50.070;8.232;2022-10-18T02:39:41;100809.81;;;16.47;100.00
15817;BME280;8009;50.070;8.232;2022-10-18T02:42:11;100811.25;;;16.51;100.00
15817;BME280;8009;50.070;8.232;2022-10-18T02:44:41;100819.44;;;16.51;99.25
15817;BME280;8009;50.070;8.232;2022-10-18T02:47:12;100812.50;;;16.38;94.39
15817;BME280;8009;50.070;8.232;2022-10-18T02:49:40;100795.47;;;16.24;89.73
15817;BME280;8009;50.070;8.232;2022-10-18T02:52:08;100807.97;;;16.27;89.95
15817;BME280;8009;50.070;8.232;2022-10-18T02:54:37;100878.63;;;16.19;86.74
15817;BME280;8009;50.070;8.232;2022-10-18T02:57:05;100888.66;;;16.18;86.23
15817;BME280;8009;50.070;8.232;2022-10-18T02:59:33;100872.06;;;16.10;90.42
15817;BME280;8009;50.070;8.232;2022-10-18T03:02:01;100845.91;;;16.19;98.34
15817;BME280;8009;50.070;8.232;2022-10-18T03:04:32;100818.56;;;15.88;100.00
15817;BME280;8009;50.070;8.232;2022-10-18T03:07:01;100816.56;;;15.90;100.00
15817;BME280;8009;50.070;8.232;2022-10-18T03:09:29;100811.22;;;16.00;100.00
15817;BME280;8009;50.070;8.232;2022-10-18T03:11:57;100824.19;;;16.07;99.67
15817;BME280;8009;50.070;8.232;2022-10-18T03:14:25;100826.69;;;16.20;99.24
15817;BME280;8009;50.070;8.232;2022-10-18T03:16:54;100815.06;;;15.97;100.00
15817;BME280;8009;50.070;8.232;2022-10-18T03:19:22;100815.91;;;15.98;100.00
15817;BME280;8009;50.070;8.232;2022-10-18T03:21:53;100805.41;;;15.93;100.00
15817;BME280;8009;50.070;8.232;2022-10-18T03:24:21;100805.50;;;16.03;100.00
15817;BME280;8009;50.070;8.232;2022-10-18T03:26:50;100804.09;;;16.08;99.20
15817;BME280;8009;50.070;8.232;2022-10-18T03:29:18;100803.28;;;16.18;98.44
15817;BME280;8009;50.070;8.232;2022-10-18T03:31:46;100803.78;;;16.23;98.04
15817;BME280;8009;50.070;8.232;2022-10-18T03:34:15;100798.84;;;16.17;98.31
15817;BME280;8009;50.070;8.232;2022-10-18T03:36:43;100798.34;;;16.23;98.06
15817;BME280;8009;50.070;8.232;2022-10-18T03:39:15;100808.03;;;16.16;97.00
15817;BME280;8009;50.070;8.232;2022-10-18T03:41:44;100824.53;;;16.14;98.12
15817;BME280;8009;50.070;8.232;2022-10-18T03:44:12;100817.56;;;16.10;98.94
15817;BME280;8009;50.070;8.232;2022-10-18T03:46:40;100818.53;;;15.99;98.73
15817;BME280;8009;50.070;8.232;2022-10-18T03:49:09;100810.59;;;15.96;98.53
15817;BME280;8009;50.070;8.232;2022-10-18T03:51:37;100807.03;;;15.96;98.11
15817;BME280;8009;50.070;8.232;2022-10-18T03:54:07;100816.59;;;16.11;98.08
15817;BME280;8009;50.070;8.232;2022-10-18T03:56:38;100823.22;;;15.97;98.67
15817;BME280;8009;50.070;8.232;2022-10-18T03:59:06;100832.41;;;16.17;97.94
15817;BME280;8009;50.070;8.232;2022-10-18T04:01:34;100845.66;;;16.22;97.54
15817;BME280;8009;50.070;8.232;2022-10-18T04:04:03;100864.72;;;16.22;97.35
15817;BME280;8009;50.070;8.232;2022-10-18T04:06:31;100862.91;;;16.11;97.73
15817;BME280;8009;50.070;8.232;2022-10-18T04:09:00;100855.16;;;16.06;98.05
15817;BME280;8009;50.070;8.232;2022-10-18T04:11:28;100855.50;;;16.02;98.38
15817;BME280;8009;50.070;8.232;2022-10-18T04:13:59;100858.97;;;16.04;98.13
15817;BME280;8009;50.070;8.232;2022-10-18T04:16:28;100872.06;;;16.10;98.23
15817;BME280;8009;50.070;8.232;2022-10-18T04:18:56;100864.53;;;16.02;98.61
15817;BME280;8009;50.070;8.232;2022-10-18T04:21:24;100856.44;;;15.91;99.30
15817;BME280;8009;50.070;8.232;2022-10-18T04:23:52;100867.34;;;15.91;99.08
15817;BME280;8009;50.070;8.232;2022-10-18T04:26:21;100864.34;;;15.94;98.54
15817;BME280;8009;50.070;8.232;2022-10-18T04:28:49;100869.31;;;15.89;98.54
15817;BME280;8009;50.070;8.232;2022-10-18T04:31:20;100861.66;;;15.83;99.15
15817;BME280;8009;50.070;8.232;2022-10-18T04:33:49;100853.38;;;15.84;98.96
15817;BME280;8009;50.070;8.232;2022-10-18T04:36:17;100857.81;;;15.86;98.45
15817;BME280;8009;50.070;8.232;2022-10-18T04:38:45;100860.03;;;15.92;98.30
15817;BME280;8009;50.070;8.232;2022-10-18T04:41:13;100862.75;;;15.92;98.45
15817;BME280;8009;50.070;8.232;2022-10-18T04:43:42;100862.66;;;15.82;98.92
15817;BME280;8009;50.070;8.232;2022-10-18T04:46:10;100861.53;;;15.84;99.18
15817;BME280;8009;50.070;8.232;2022-10-18T04:48:41;100867.09;;;15.83;99.46
15817;BME280;8009;50.070;8.232;2022-10-18T04:51:09;100858.22;;;15.81;99.39
15817;BME280;8009;50.070;8.232;2022-10-18T04:53:38;100857.34;;;15.80;99.17
15817;BME280;8009;50.070;8.232;2022-10-18T04:56:07;100853.75;;;15.80;98.72
15817;BME280;8009;50.070;8.232;2022-10-18T04:58:38;100851.66;;;15.83;99.24
15817;BME280;8009;50.070;8.232;2022-10-18T05:01:07;100850.75;;;15.83;99.02
15817;BME280;8009;50.070;8.232;2022-10-18T05:03:35;100841.31;;;15.87;99.10
15817;BME280;8009;50.070;8.232;2022-10-18T05:06:07;100838.59;;;15.87;98.77
15817;BME280;8009;50.070;8.232;2022-10-18T05:08:35;100842.13;;;15.78;99.34
15817;BME280;8009;50.070;8.232;2022-10-18T05:11:04;100836.81;;;15.76;99.58
15817;BME280;8009;50.070;8.232;2022-10-18T05:13:33;100834.84;;;15.67;100.00
15817;BME280;8009;50.070;8.232;2022-10-18T05:16:03;100828.25;;;15.81;100.00
15817;BME280;8009;50.070;8.232;2022-10-18T05:18:31;100828.00;;;15.84;99.98
15817;BME280;8009;50.070;8.232;2022-10-18T05:20:59;100830.19;;;15.90;99.49
15817;BME280;8009;50.070;8.232;2022-10-18T05:23:30;100834.91;;;15.88;99.47
15817;BME280;8009;50.070;8.232;2022-10-18T05:26:01;100836.25;;;15.94;99.42
15817;BME280;8009;50.070;8.232;2022-10-18T05:28:30;100841.47;;;15.86;99.93
15817;BME280;8009;50.070;8.232;2022-10-18T05:30:59;100846.72;;;15.77;99.80
15817;BME280;8009;50.070;8.232;2022-10-18T05:33:28;100853.38;;;15.84;99.88
15817;BME280;8009;50.070;8.232;2022-10-18T05:35:57;100855.19;;;15.95;98.76
15817;BME280;8009;50.070;8.232;2022-10-18T05:38:26;100857.66;;;15.87;99.26
15817;BME280;8009;50.070;8.232;2022-10-18T05:40:58;100869.59;;;15.75;98.77
15817;BME280;8009;50.070;8.232;2022-10-18T05:43:26;100867.69;;;15.87;99.33
15817;BME280;8009;50.070;8.232;2022-10-18T05:45:55;100871.19;;;15.89;98.63
15817;BME280;8009;50.070;8.232;2022-10-18T05:48:24;100868.13;;;15.71;99.75
15817;BME280;8009;50.070;8.232;2022-10-18T05:50:52;100862.19;;;15.77;99.43
15817;BME280;8009;50.070;8.232;2022-10-18T05:53:20;100868.63;;;15.76;99.38
15817;BME280;8009;50.070;8.232;2022-10-18T05:55:49;100866.00;;;15.74;99.93
15817;BME280;8009;50.070;8.232;2022-10-18T05:58:20;100863.53;;;15.71;99.71
15817;BME280;8009;50.070;8.232;2022-10-18T06:00:48;100850.94;;;15.59;100.00
15817;BME280;8009;50.070;8.232;2022-10-18T06:03:16;100857.50;;;15.68;99.89
15817;BME280;8009;50.070;8.232;2022-10-18T06:05:45;100853.00;;;15.78;99.29
15817;BME280;8009;50.070;8.232;2022-10-18T06:08:13;100857.84;;;15.74;99.24
15817;BME280;8009;50.070;8.232;2022-10-18T06:10:41;100851.78;;;15.71;99.50
15817;BME280;8009;50.070;8.232;2022-10-18T06:13:10;100862.28;;;15.75;100.00
15817;BME280;8009;50.070;8.232;2022-10-18T06:15:41;100859.84;;;15.72;100.00
15817;BME280;8009;50.070;8.232;2022-10-18T06:18:09;100869.22;;;15.79;99.58
15817;BME280;8009;50.070;8.232;2022-10-18T06:20:37;100885.28;;;15.82;99.30
15817;BME280;8009;50.070;8.232;2022-10-18T06:23:06;100894.25;;;15.73;99.27
15817;BME280;8009;50.070;8.232;2022-10-18T06:25:34;100898.81;;;15.62;99.93
15817;BME280;8009;50.070;8.232;2022-10-18T06:28:03;100898.59;;;15.53;100.00
15817;BME280;8009;50.070;8.232;2022-10-18T06:30:31;100885.59;;;15.68;99.93
15817;BME280;8009;50.070;8.232;2022-10-18T06:33:02;100895.47;;;15.58;100.00
15817;BME280;8009;50.070;8.232;2022-10-18T06:35:30;100896.81;;;15.75;99.92
15817;BME280;8009;50.070;8.232;2022-10-18T06:37:59;100895.97;;;15.74;99.92
15817;BME280;8009;50.070;8.232;2022-10-18T06:40:27;100890.53;;;15.74;99.82
15817;BME280;8009;50.070;8.232;2022-10-18T06:43:02;100887.41;;;15.79;99.58
15817;BME280;8009;50.070;8.232;2022-10-18T06:45:31;100892.75;;;15.80;99.26
15817;BME280;8009;50.070;8.232;2022-10-18T06:48:02;100890.03;;;15.80;99.11
15817;BME280;8009;50.070;8.232;2022-10-18T06:50:30;100890.53;;;15.74;100.00
15817;BME280;8009;50.070;8.232;2022-10-18T06:52:59;100893.22;;;15.86;99.46
15817;BME280;8009;50.070;8.232;2022-10-18T06:55:29;100885.91;;;15.86;99.15
15817;BME280;8009;50.070;8.232;2022-10-18T06:57:57;100907.94;;;15.83;99.88
15817;BME280;8009;50.070;8.232;2022-10-18T07:00:26;100904.84;;;15.88;99.38
15817;BME280;8009;50.070;8.232;2022-10-18T07:02:55;100904.84;;;15.88;99.70
15817;BME280;8009;50.070;8.232;2022-10-18T07:05:26;100909.06;;;15.92;99.28
15817;BME280;8009;50.070;8.232;2022-10-18T07:07:54;100914.75;;;15.89;99.23
15817;BME280;8009;50.070;8.232;2022-10-18T07:10:23;100919.44;;;15.87;100.00
15817;BME280;8009;50.070;8.232;2022-10-18T07:12:51;100923.91;;;15.99;99.37
15817;BME280;8009;50.070;8.232;2022-10-18T07:15:20;100928.56;;;16.08;98.89
15817;BME280;8009;50.070;8.232;2022-10-18T07:17:49;100921.63;;;16.04;99.25
15817;BME280;8009;50.070;8.232;2022-10-18T07:20:17;100922.97;;;16.09;98.59
15817;BME280;8009;50.070;8.232;2022-10-18T07:22:48;100931.91;;;16.00;98.94
15817;BME280;8009;50.070;8.232;2022-10-18T07:25:17;100932.00;;;16.10;98.83
15817;BME280;8009;50.070;8.232;2022-10-18T07:27:45;100941.81;;;16.01;99.26
15817;BME280;8009;50.070;8.232;2022-10-18T07:30:13;100933.50;;;16.14;99.12
15817;BME280;8009;50.070;8.232;2022-10-18T07:32:41;100934.47;;;16.13;98.56
15817;BME280;8009;50.070;8.232;2022-10-18T07:35:10;100942.97;;;15.99;99.79
15817;BME280;8009;50.070;8.232;2022-10-18T07:37:39;100933.59;;;16.13;99.23
15817;BME280;8009;50.070;8.232;2022-10-18T07:40:11;100937.91;;;16.26;98.62
15817;BME280;8009;50.070;8.232;2022-10-18T07:42:39;100934.78;;;16.31;98.74
15817;BME280;8009;50.070;8.232;2022-10-18T07:45:08;100946.63;;;16.09;99.46
15817;BME280;8009;50.070;8.232;2022-10-18T07:47:39;100936.09;;;16.16;99.75
15817;BME280;8009;50.070;8.232;2022-10-18T07:50:08;100938.44;;;16.09;99.48
15817;BME280;8009;50.070;8.232;2022-10-18T07:52:36;100946.94;;;16.27;98.99
15817;BME280;8009;50.070;8.232;2022-10-18T07:55:05;100946.09;;;16.47;98.02
15817;BME280;8009;50.070;8.232;2022-10-18T07:57:36;100946.97;;;16.48;97.73
15817;BME280;8009;50.070;8.232;2022-10-18T08:00:06;100952.69;;;16.45;98.02
15817;BME280;8009;50.070;8.232;2022-10-18T08:02:35;100946.03;;;16.38;98.14
15817;BME280;8009;50.070;8.232;2022-10-18T08:05:04;100946.09;;;16.47;97.60
15817;BME280;8009;50.070;8.232;2022-10-18T08:07:32;100951.94;;;16.43;97.34
15817;BME280;8009;50.070;8.232;2022-10-18T08:10:01;100948.47;;;16.41;98.39
15817;BME280;8009;50.070;8.232;2022-10-18T08:12:29;100950.94;;;16.44;98.18
15817;BME280;8009;50.070;8.232;2022-10-18T08:15:00;100957.41;;;16.43;98.46
15817;BME280;8009;50.070;8.232;2022-10-18T08:17:29;100955.38;;;16.56;97.51
15817;BME280;8009;50.070;8.232;2022-10-18T08:19:57;100959.03;;;16.66;97.35
15817;BME280;8009;50.070;8.232;2022-10-18T08:22:25;100970.78;;;16.67;97.49
15817;BME280;8009;50.070;8.232;2022-10-18T08:24:54;100972.31;;;16.60;97.21
15817;BME280;8009;50.070;8.232;2022-10-18T08:27:22;100973.72;;;16.54;98.33
15817;BME280;8009;50.070;8.232;2022-10-18T08:29:52;100968.50;;;16.51;98.34
15817;BME280;8009;50.070;8.232;2022-10-18T08:32:23;100969.81;;;16.68;97.84
15817;BME280;8009;50.070;8.232;2022-10-18T08:34:52;100977.25;;;16.66;97.43
15817;BME280;8009;50.070;8.232;2022-10-18T08:37:21;100982.09;;;16.62;98.00
15817;BME280;8009;50.070;8.232;2022-10-18T08:39:49;100973.91;;;16.62;98.15
15817;BME280;8009;50.070;8.232;2022-10-18T08:42:24;100974.81;;;16.51;98.76
15817;BME280;8009;50.070;8.232;2022-10-18T08:44:58;100980.13;;;16.64;97.52
15817;BME280;8009;50.070;8.232;2022-10-18T08:47:34;100981.44;;;16.70;96.30
15817;BME280;8009;50.070;8.232;2022-10-18T08:50:06;100985.28;;;16.67;97.13
15817;BME280;8009;50.070;8.232;2022-10-18T08:52:43;100988.81;;;16.58;97.47
15817;BME280;8009;50.070;8.232;2022-10-18T08:55:20;100984.81;;;16.73;97.54
15817;BME280;8009;50.070;8.232;2022-10-18T08:57:51;100988.38;;;16.74;96.93
15817;BME280;8009;50.070;8.232;2022-10-18T09:00:21;100988.13;;;16.77;97.07
15817;BME280;8009;50.070;8.232;2022-10-18T09:03:18;100989.41;;;16.62;97.42
15817;BME280;8009;50.070;8.232;2022-10-18T09:05:50;100982.44;;;16.69;97.42
15817;BME280;8009;50.070;8.232;2022-10-18T09:08:39;100981.00;;;16.86;97.55
15817;BME280;8009;50.070;8.232;2022-10-18T09:11:18;100991.47;;;16.69;95.43
15817;BME280;8009;50.070;8.232;2022-10-18T09:14:02;100995.88;;;16.61;94.19
15817;BME280;8009;50.070;8.232;2022-10-18T09:16:41;100995.72;;;16.73;96.38
15817;BME280;8009;50.070;8.232;2022-10-18T09:19:21;100997.78;;;16.70;91.42
15817;BME280;8009;50.070;8.232;2022-10-18T09:21:57;100995.56;;;16.75;90.85
15817;BME280;8009;50.070;8.232;2022-10-18T09:24:33;100995.44;;;16.76;91.20
15817;BME280;8009;50.070;8.232;2022-10-18T09:27:14;100995.56;;;16.75;94.16
15817;BME280;8009;50.070;8.232;2022-10-18T09:29:52;100997.94;;;16.68;88.81
15817;BME280;8009;50.070;8.232;2022-10-18T09:32:32;100988.66;;;16.92;93.19
15817;BME280;8009;50.070;8.232;2022-10-18T09:35:13;100989.31;;;17.05;92.19
15817;BME280;8009;50.070;8.232;2022-10-18T09:37:44;100986.47;;;17.07;91.94
15817;BME280;8009;50.070;8.232;2022-10-18T09:40:16;100976.22;;;16.99;87.44
15817;BME280;8009;50.070;8.232;2022-10-18T09:42:52;100978.41;;;17.05;82.61
15817;BME280;8009;50.070;8.232;2022-10-18T09:45:26;100984.53;;;17.18;90.70
15817;BME280;8009;50.070;8.232;2022-10-18T09:48:01;100983.69;;;17.18;92.63
15817;BME280;8009;50.070;8.232;2022-10-18T09:50:39;100979.75;;;17.11;92.61
15817;BME280;8009;50.070;8.232;2022-10-18T09:53:16;100980.81;;;16.98;89.54
15817;BME280;8009;50.070;8.232;2022-10-18T09:55:57;100983.41;;;17.00;93.12
15817;BME280;8009;50.070;8.232;2022-10-18T09:58:37;100986.22;;;17.10;95.18
15817;BME280;8009;50.070;8.232;2022-10-18T10:01:08;100990.41;;;17.14;94.90
15817;BME280;8009;50.070;8.232;2022-10-18T10:03:38;100990.72;;;17.20;92.04
15817;BME280;8009;50.070;8.232;2022-10-18T10:06:23;100995.25;;;17.10;95.52
15817;BME280;8009;50.070;8.232;2022-10-18T10:09:00;100993.66;;;17.28;95.43
15817;BME280;8009;50.070;8.232;2022-10-18T10:11:31;100992.84;;;17.17;96.63
15817;BME280;8009;50.070;8.232;2022-10-18T10:14:08;101003.59;;;17.39;92.48
15817;BME280;8009;50.070;8.232;2022-10-18T10:16:43;101009.84;;;17.51;94.02
15817;BME280;8009;50.070;8.232;2022-10-18T10:19:17;101010.41;;;17.45;93.95
15817;BME280;8009;50.070;8.232;2022-10-18T10:21:50;101005.19;;;17.42;95.43
15817;BME280;8009;50.070;8.232;2022-10-18T10:24:23;101017.63;;;17.56;92.05
15817;BME280;8009;50.070;8.232;2022-10-18T10:26:59;101017.63;;;17.56;94.41
15817;BME280;8009;50.070;8.232;2022-10-18T10:29:50;101022.03;;;17.47;91.64
15817;BME280;8009;50.070;8.232;2022-10-18T10:32:23;101019.84;;;17.41;94.21
15817;BME280;8009;50.070;8.232;2022-10-18T10:34:52;101016.06;;;17.32;92.19
15817;BME280;8009;50.070;8.232;2022-10-18T10:37:34;101022.31;;;17.44;93.72
15817;BME280;8009;50.070;8.232;2022-10-18T10:40:12;101019.59;;;17.44;94.82
15817;BME280;8009;50.070;8.232;2022-10-18T10:43:13;101017.94;;;17.62;95.02
15817;BME280;8009;50.070;8.232;2022-10-18T10:45:56;101018.94;;;17.82;92.80
15817;BME280;8009;50.070;8.232;2022-10-18T10:48:27;101012.78;;;17.90;92.00
15817;BME280;8009;50.070;8.232;2022-10-18T10:51:04;101017.22;;;17.60;80.94
15817;BME280;8009;50.070;8.232;2022-10-18T10:53:38;101018.63;;;17.75;90.19
15817;BME280;8009;50.070;8.232;2022-10-18T10:56:16;101020.41;;;17.65;79.27
15817;BME280;8009;50.070;8.232;2022-10-18T10:58:45;101023.91;;;17.46;80.39
15817;BME280;8009;50.070;8.232;2022-10-18T11:01:31;101034.66;;;17.69;88.91
15817;BME280;8009;50.070;8.232;2022-10-18T11:04:08;101036.59;;;17.57;89.54
15817;BME280;8009;50.070;8.232;2022-10-18T11:06:56;101041.06;;;17.89;91.72
15817;BME280;8009;50.070;8.232;2022-10-18T11:09:47;101032.94;;;17.98;93.73
15817;BME280;8009;50.070;8.232;2022-10-18T11:12:23;101031.97;;;18.09;91.43
15817;BME280;8009;50.070;8.232;2022-10-18T11:15:02;101022.34;;;17.53;78.74
15817;BME280;8009;50.070;8.232;2022-10-18T11:17:38;101020.38;;;17.56;79.66
15817;BME280;8009;50.070;8.232;2022-10-18T11:20:20;101024.66;;;17.58;86.90
15817;BME280;8009;50.070;8.232;2022-10-18T11:23:00;101013.91;;;17.57;88.24
15817;BME280;8009;50.070;8.232;2022-10-18T11:25:46;101019.34;;;17.57;81.82
15817;BME280;8009;50.070;8.232;2022-10-18T11:28:26;101015.78;;;17.66;85.41
15817;BME280;8009;50.070;8.232;2022-10-18T11:31:06;101015.09;;;17.43;79.89
15817;BME280;8009;50.070;8.232;2022-10-18T11:33:45;101018.34;;;17.58;81.47
15817;BME280;8009;50.070;8.232;2022-10-18T11:36:21;101011.03;;;17.89;89.51
15817;BME280;8009;50.070;8.232;2022-10-18T11:38:55;101008.75;;;17.94;88.37
15817;BME280;8009;50.070;8.232;2022-10-18T11:41:37;101019.03;;;17.50;89.62
15817;BME280;8009;50.070;8.232;2022-10-18T11:44:14;101017.44;;;17.78;86.09
15817;BME280;8009;50.070;8.232;2022-10-18T11:46:55;101012.91;;;17.88;91.72
15817;BME280;8009;50.070;8.232;2022-10-18T11:49:43;101014.88;;;17.76;92.38
15817;BME280;8009;50.070;8.232;2022-10-18T11:52:17;101016.09;;;17.93;87.45
15817;BME280;8009;50.070;8.232;2022-10-18T11:55:01;101011.34;;;17.95;85.49
15817;BME280;8009;50.070;8.232;2022-10-18T11:57:53;101007.47;;;18.08;81.53
15817;BME280;8009;50.070;8.232;2022-10-18T12:00:34;101006.34;;;18.10;88.72
15817;BME280;8009;50.070;8.232;2022-10-18T12:03:27;101005.72;;;17.87;78.08
15817;BME280;8009;50.070;8.232;2022-10-18T12:06:01;101006.56;;;17.88;91.46
15817;BME280;8009;50.070;8.232;2022-10-18T12:08:34;101016.38;;;17.90;87.54
15817;BME280;8009;50.070;8.232;2022-10-18T12:11:08;101005.59;;;17.68;79.45
15817;BME280;8009;50.070;8.232;2022-10-18T12:13:44;101004.59;;;17.69;83.86
15817;BME280;8009;50.070;8.232;2022-10-18T12:16:14;100996.97;;;17.93;93.68
15817;BME280;8009;50.070;8.232;2022-10-18T12:18:50;100989.94;;;17.70;82.38
15817;BME280;8009;50.070;8.232;2022-10-18T12:21:22;100985.84;;;17.75;80.39
15817;BME280;8009;50.070;8.232;2022-10-18T12:23:54;100993.66;;;17.99;91.55
15817;BME280;8009;50.070;8.232;2022-10-18T12:26:26;100986.91;;;18.03;91.32
15817;BME280;8009;50.070;8.232;2022-10-18T12:29:07;100989.91;;;18.00;81.87
15817;BME280;8009;50.070;8.232;2022-10-18T12:31:42;100986.09;;;18.32;89.82
15817;BME280;8009;50.070;8.232;2022-10-18T12:34:26;100978.63;;;18.24;89.49
15817;BME280;8009;50.070;8.232;2022-10-18T12:40:02;100986.31;;;18.00;79.02
15817;BME280;8009;50.070;8.232;2022-10-18T12:42:33;100985.53;;;18.29;90.43
15817;BME280;8009;50.070;8.232;2022-10-18T12:45:22;100982.09;;;18.36;85.44
15817;BME280;8009;50.070;8.232;2022-10-18T12:47:51;100981.19;;;18.16;82.33
15817;BME280;8009;50.070;8.232;2022-10-18T12:50:28;100982.59;;;18.01;78.42
15817;BME280;8009;50.070;8.232;2022-10-18T12:53:04;100977.75;;;18.34;88.13
15817;BME280;8009;50.070;8.232;2022-10-18T12:55:34;100975.72;;;18.26;87.22
15817;BME280;8009;50.070;8.232;2022-10-18T12:58:23;100979.25;;;17.88;79.25
15817;BME280;8009;50.070;8.232;2022-10-18T13:00:59;100981.63;;;18.31;76.26
15817;BME280;8009;50.070;8.232;2022-10-18T13:13:01;100983.63;;;18.10;86.65
15817;BME280;8009;50.070;8.232;2022-10-18T13:15:40;100978.06;;;17.81;80.38
15817;BME280;8009;50.070;8.232;2022-10-18T13:18:19;100975.16;;;17.72;76.46
15817;BME280;8009;50.070;8.232;2022-10-18T13:20:59;100983.22;;;18.34;85.75
15817;BME280;8009;50.070;8.232;2022-10-18T13:23:40;100975.56;;;18.27;84.29
15817;BME280;8009;50.070;8.232;2022-10-18T13:26:18;100983.63;;;18.10;76.57
15817;BME280;8009;50.070;8.232;2022-10-18T13:29:00;100974.91;;;17.85;76.39
15817;BME280;8009;50.070;8.232;2022-10-18T13:31:37;100982.16;;;17.65;76.31
15817;BME280;8009;50.070;8.232;2022-10-18T13:34:24;100980.44;;;17.95;78.72
15817;BME280;8009;50.070;8.232;2022-10-18T13:37:00;100974.09;;;17.94;82.80
15817;BME280;8009;50.070;8.232;2022-10-18T13:39:29;100977.03;;;17.72;85.18
15817;BME280;8009;50.070;8.232;2022-10-18T13:42:31;100977.72;;;17.74;79.51
15817;BME280;8009;50.070;8.232;2022-10-18T13:51:02;100982.09;;;17.76;80.30
15817;BME280;8009;50.070;8.232;2022-10-18T13:53:44;100984.19;;;17.63;76.97